Time;durP1;ratioP1;P1;durP2;ratioP2;P2;SDS_P1;SDS_P2;PMS_P1;PMS_P2;Temp;Humidity;BMP_temperature;BMP_pressure;BME280_temperature;BME280_humidity;BME280_pressure;Samples;Min_cycle;Max_cycle;Signal;HPM_P1;HPM_P2
2021/11/09 00:01:03;;;;;;;22.23;10.07;;;9.40;87.80;;;;;;5053294;28;20924;-65
2021/11/09 00:03:32;;;;;;;14.40;9.97;;;9.40;88.00;;;;;;5052957;28;20492;-65
2021/11/09 00:06:07;;;;;;;18.13;9.13;;;9.30;87.70;;;;;;5053026;28;21035;-65
2021/11/09 00:08:43;;;;;;;25.87;10.67;;;9.30;87.80;;;;;;5053082;28;20499;-65
2021/11/09 00:11:12;;;;;;;26.37;10.10;;;9.30;88.00;;;;;;5053007;28;20491;-65
2021/11/09 00:13:43;;;;;;;25.33;11.60;;;9.30;88.90;;;;;;5053018;28;20481;-65
2021/11/09 00:16:19;;;;;;;31.17;9.97;;;9.30;90.10;;;;;;5052994;28;20434;-65
2021/11/09 00:18:50;;;;;;;21.60;10.03;;;9.30;89.60;;;;;;5053156;28;20476;-65
2021/11/09 00:21:22;;;;;;;22.17;10.10;;;9.30;89.10;;;;;;5053218;28;20442;-65
2021/11/09 00:23:52;;;;;;;24.60;10.77;;;9.30;89.30;;;;;;5052652;28;20497;-65
2021/11/09 00:26:22;;;;;;;17.83;9.00;;;9.30;89.20;;;;;;5052683;28;20457;-65
2021/11/09 00:28:52;;;;;;;20.77;9.93;;;9.20;88.80;;;;;;5053097;28;20511;-64
2021/11/09 00:31:23;;;;;;;21.00;10.30;;;9.20;87.80;;;;;;5052709;28;20438;-65
2021/11/09 00:34:05;;;;;;;17.97;8.50;;;9.10;87.20;;;;;;5052552;28;20472;-65
2021/11/09 00:36:33;;;;;;;20.83;8.83;;;9.10;86.90;;;;;;5051723;28;20524;-64
2021/11/09 00:39:04;;;;;;;21.80;9.43;;;9.00;86.30;;;;;;5052633;28;20454;-64
2021/11/09 00:41:38;;;;;;;25.90;8.83;;;9.00;85.90;;;;;;5052711;28;20833;-65
2021/11/09 00:44:06;;;;;;;30.43;10.60;;;8.90;85.70;;;;;;5052810;28;20492;-65
2021/11/09 00:46:34;;;;;;;22.30;10.00;;;8.90;85.80;;;;;;5052561;28;20449;-65
2021/11/09 00:49:02;;;;;;;19.83;9.80;;;8.90;86.00;;;;;;5054130;28;20445;-65
2021/11/09 00:51:29;;;;;;;23.47;9.80;;;8.90;86.30;;;;;;5056194;28;20453;-65
2021/11/09 00:53:57;;;;;;;22.53;9.13;;;8.90;86.40;;;;;;5056192;28;20457;-65
2021/11/09 00:56:25;;;;;;;23.27;9.97;;;8.80;86.40;;;;;;5056077;28;20449;-65
2021/11/09 00:58:54;;;;;;;23.23;10.03;;;8.80;86.30;;;;;;5056249;28;20520;-65
2021/11/09 01:01:24;;;;;;;24.93;9.70;;;8.80;86.40;;;;;;5056444;28;20451;-65
2021/11/09 01:03:52;;;;;;;21.03;11.90;;;8.80;86.50;;;;;;5056000;28;20493;-65
2021/11/09 01:06:23;;;;;;;18.67;8.67;;;8.70;86.20;;;;;;5056355;28;20459;-65
2021/11/09 01:08:51;;;;;;;22.17;9.27;;;8.70;86.20;;;;;;5056116;28;20445;-65
2021/11/09 01:11:19;;;;;;;19.83;8.13;;;8.70;86.10;;;;;;5056046;28;20489;-65
2021/11/09 01:13:51;;;;;;;17.50;9.50;;;8.70;86.00;;;;;;5055816;28;20465;-64
2021/11/09 01:16:23;;;;;;;21.20;10.70;;;8.70;86.10;;;;;;5055958;28;20433;-64
2021/11/09 01:18:56;;;;;;;19.33;9.00;;;8.70;86.40;;;;;;5055992;28;20481;-64
2021/11/09 01:21:23;;;;;;;31.57;8.97;;;8.70;86.80;;;;;;5055950;28;20438;-65
2021/11/09 01:23:54;;;;;;;24.33;9.63;;;8.60;86.50;;;;;;5055929;28;20484;-65
2021/11/09 01:26:22;;;;;;;18.03;8.80;;;8.60;86.30;;;;;;5055790;28;20445;-65
2021/11/09 01:28:52;;;;;;;27.20;10.60;;;8.60;86.30;;;;;;5056582;28;20460;-65
2021/11/09 01:31:22;;;;;;;29.43;9.83;;;8.60;86.40;;;;;;5056359;28;20449;-64
2021/11/09 01:33:51;;;;;;;28.00;10.70;;;8.60;86.40;;;;;;5055491;28;20472;-65
2021/11/09 01:36:21;;;;;;;24.10;10.40;;;8.60;86.40;;;;;;5055910;28;20481;-66
2021/11/09 01:38:50;;;;;;;19.97;9.17;;;8.50;86.20;;;;;;5055618;28;20434;-66
2021/11/09 01:41:18;;;;;;;25.70;10.33;;;8.50;86.40;;;;;;5055343;28;20493;-66
2021/11/09 01:43:50;;;;;;;21.47;10.03;;;8.50;86.90;;;;;;5055051;28;20482;-65
2021/11/09 01:46:18;;;;;;;25.60;8.67;;;8.50;87.00;;;;;;5055220;28;20448;-65
2021/11/09 01:48:50;;;;;;;17.40;8.60;;;8.40;86.70;;;;;;5055308;28;20457;-65
2021/11/09 01:51:20;;;;;;;26.43;9.20;;;8.40;86.80;;;;;;5055244;28;20430;-65
2021/11/09 01:53:56;;;;;;;20.30;9.20;;;8.40;87.10;;;;;;5055142;28;20481;-65
2021/11/09 01:56:33;;;;;;;36.10;10.90;;;8.40;88.40;;;;;;5055088;28;20508;-65
2021/11/09 01:59:04;;;;;;;33.33;11.30;;;8.40;89.90;;;;;;5055472;28;20866;-66
2021/11/09 02:01:32;;;;;;;27.70;10.07;;;8.40;90.30;;;;;;5054816;28;20446;-66
2021/11/09 02:04:09;;;;;;;33.80;10.40;;;8.40;90.50;;;;;;5055054;28;20491;-66
2021/11/09 02:06:43;;;;;;;27.10;11.37;;;8.30;90.40;;;;;;5054760;28;20844;-65
2021/11/09 02:09:12;;;;;;;31.30;10.47;;;8.30;90.50;;;;;;5055102;28;20862;-65
2021/11/09 02:11:43;;;;;;;34.57;9.90;;;8.40;90.80;;;;;;5054624;28;20469;-65
2021/11/09 02:14:15;;;;;;;24.33;9.07;;;8.30;90.80;;;;;;5054704;28;20461;-65
2021/11/09 02:16:44;;;;;;;18.80;9.37;;;8.30;90.70;;;;;;5054652;28;20438;-65
2021/11/09 02:19:15;;;;;;;26.00;10.70;;;8.30;90.60;;;;;;5054694;28;20873;-65
2021/11/09 02:21:44;;;;;;;17.67;9.00;;;8.30;90.40;;;;;;5054458;28;20414;-65
2021/11/09 02:24:15;;;;;;;27.00;8.33;;;8.30;90.30;;;;;;5054428;28;20572;-65
2021/11/09 02:26:49;;;;;;;22.93;9.17;;;8.30;90.30;;;;;;5054291;28;20433;-65
2021/11/09 02:29:26;;;;;;;19.30;10.10;;;8.30;90.30;;;;;;5054412;28;20456;-65
2021/11/09 02:31:56;;;;;;;23.90;8.20;;;8.30;90.40;;;;;;5054220;28;20433;-65
2021/11/09 02:34:28;;;;;;;23.07;8.60;;;8.20;90.10;;;;;;5054096;28;20470;-65
2021/11/09 02:36:58;;;;;;;17.60;7.67;;;8.20;89.90;;;;;;5054265;28;20445;-65
2021/11/09 02:39:26;;;;;;;27.33;9.03;;;8.20;89.50;;;;;;5054440;28;20813;-65
2021/11/09 02:41:53;;;;;;;23.53;8.03;;;8.20;89.30;;;;;;5054003;28;20544;-65
2021/11/09 02:44:25;;;;;;;22.50;8.70;;;8.20;89.00;;;;;;5053780;28;20500;-66
2021/11/09 02:46:54;;;;;;;19.57;7.77;;;8.20;89.70;;;;;;5054118;28;20433;-66
2021/11/09 02:49:28;;;;;;;14.97;7.63;;;8.20;88.60;;;;;;5054537;28;20445;-66
2021/11/09 02:52:02;;;;;;;26.63;8.80;;;8.20;88.50;;;;;;5054044;28;20448;-65
2021/11/09 02:54:35;;;;;;;22.27;8.03;;;8.20;88.30;;;;;;5053838;28;20511;-66
2021/11/09 02:57:07;;;;;;;20.33;8.33;;;8.10;87.60;;;;;;5054164;28;20434;-66
2021/11/09 02:59:45;;;;;;;17.33;7.57;;;8.10;87.60;;;;;;5054118;28;20440;-65
2021/11/09 03:02:28;;;;;;;21.70;9.10;;;8.10;87.50;;;;;;5053634;28;20434;-67
2021/11/09 03:05:11;;;;;;;24.83;7.67;;;8.10;87.40;;;;;;5054086;28;20473;-66
2021/11/09 03:07:48;;;;;;;19.37;7.97;;;8.00;87.30;;;;;;5053980;28;20839;-66
2021/11/09 03:10:29;;;;;;;18.57;7.00;;;8.00;87.20;;;;;;5053665;28;20430;-66
2021/11/09 03:12:57;;;;;;;16.50;9.07;;;8.00;87.10;;;;;;5053617;28;20483;-66
2021/11/09 03:15:29;;;;;;;21.97;8.40;;;7.90;86.60;;;;;;5053881;28;20929;-65
2021/11/09 03:17:59;;;;;;;22.00;7.47;;;7.90;86.60;;;;;;5053874;28;20434;-65
2021/11/09 03:20:33;;;;;;;19.43;8.53;;;7.90;86.80;;;;;;5054062;28;20835;-65
2021/11/09 03:40:05;;;;;;;22.97;7.23;;;7.90;87.80;;;;;;5053730;28;20509;-66
2021/11/09 03:45:26;;;;;;;27.73;9.60;;;7.90;88.20;;;;;;5053761;28;20581;-66
2021/11/09 03:48:03;;;;;;;13.07;7.80;;;7.80;88.30;;;;;;5053161;28;20449;-65
2021/11/09 03:50:33;;;;;;;16.27;7.73;;;7.80;88.10;;;;;;5053043;28;20520;-65
2021/11/09 03:53:08;;;;;;;16.57;7.47;;;7.80;87.80;;;;;;5052644;28;20552;-66
2021/11/09 03:55:45;;;;;;;17.40;7.40;;;7.80;87.50;;;;;;5052922;28;20432;-65
2021/11/09 03:58:21;;;;;;;17.67;7.37;;;7.80;87.40;;;;;;5053158;28;20528;-65
2021/11/09 04:00:55;;;;;;;16.40;7.83;;;7.80;87.20;;;;;;5052811;28;20776;-65
2021/11/09 04:03:37;;;;;;;17.67;8.30;;;7.80;87.10;;;;;;5052670;28;20839;-66
2021/11/09 04:06:19;;;;;;;14.50;7.50;;;7.70;86.90;;;;;;5052968;28;20543;-66
2021/11/09 04:08:54;;;;;;;21.40;8.07;;;7.70;87.00;;;;;;5052755;28;20791;-65
2021/11/09 04:11:28;;;;;;;15.23;7.53;;;7.70;87.30;;;;;;5052753;28;20437;-65
2021/11/09 04:14:02;;;;;;;12.90;7.07;;;7.70;87.50;;;;;;5052752;28;20471;-63
2021/11/09 04:16:43;;;;;;;17.63;8.73;;;7.70;87.40;;;;;;5052632;28;20426;-63
2021/11/09 04:19:21;;;;;;;19.43;7.97;;;7.60;87.20;;;;;;5052877;28;20477;-63
2021/11/09 04:25:10;;;;;;;13.13;7.80;;;7.60;86.80;;;;;;5055082;28;20479;-63
2021/11/09 04:27:48;;;;;;;17.80;7.13;;;7.60;87.00;;;;;;5056581;28;20430;-63
2021/11/09 04:33:42;;;;;;;18.47;7.30;;;7.50;88.60;;;;;;5036563;28;20457;-63
2021/11/09 05:01:38;;;;;;;17.50;7.83;;;7.40;91.20;;;;;;5056372;28;20547;-63
2021/11/09 05:09:39;;;;;;;13.37;6.70;;;7.30;91.30;;;;;;5056102;28;20508;-63
2021/11/09 05:12:08;;;;;;;13.77;6.53;;;7.30;91.70;;;;;;5055709;28;20426;-63
2021/11/09 05:14:37;;;;;;;13.93;7.07;;;7.30;91.30;;;;;;5056134;28;20925;-64
2021/11/09 05:17:07;;;;;;;18.53;6.40;;;7.30;91.30;;;;;;5055680;28;20815;-63
2021/11/09 05:19:35;;;;;;;15.17;6.07;;;7.20;91.30;;;;;;5056012;28;20442;-63
2021/11/09 05:22:07;;;;;;;15.27;8.20;;;7.30;91.40;;;;;;5055573;28;20929;-63
2021/11/09 05:24:42;;;;;;;17.97;7.10;;;7.30;91.50;;;;;;5055719;28;20989;-63
2021/11/09 05:27:16;;;;;;;14.87;6.90;;;7.30;91.50;;;;;;5055568;28;20516;-63
2021/11/09 05:29:48;;;;;;;23.87;8.33;;;7.30;91.50;;;;;;5055449;28;20437;-63
2021/11/09 05:32:18;;;;;;;13.60;6.50;;;7.40;91.50;;;;;;5055786;28;20433;-64
2021/11/09 05:34:47;;;;;;;12.90;7.00;;;7.40;91.30;;;;;;5055159;28;20438;-63
2021/11/09 05:37:19;;;;;;;15.93;6.53;;;7.40;91.10;;;;;;5055489;28;20926;-63
2021/11/09 05:39:52;;;;;;;11.87;6.40;;;7.40;90.90;;;;;;5055798;28;20837;-63
2021/11/09 05:42:24;;;;;;;16.20;6.90;;;7.40;91.10;;;;;;5054963;28;20953;-63
2021/11/09 05:44:52;;;;;;;12.50;6.80;;;7.30;90.50;;;;;;5055095;28;20902;-63
2021/11/09 05:47:22;;;;;;;15.50;6.80;;;7.30;90.40;;;;;;5054968;28;20833;-63
2021/11/09 05:49:54;;;;;;;12.80;6.50;;;7.40;90.40;;;;;;5055054;28;20503;-63
2021/11/09 05:52:22;;;;;;;15.97;7.00;;;7.40;90.30;;;;;;5054818;28;20426;-63
2021/11/09 05:54:50;;;;;;;16.87;7.23;;;7.40;90.30;;;;;;5054911;28;20445;-63
2021/11/09 05:57:22;;;;;;;12.73;5.63;;;7.40;90.10;;;;;;5054723;28;20456;-63
2021/11/09 05:59:51;;;;;;;14.87;6.20;;;7.40;90.10;;;;;;5054774;28;20460;-63
2021/11/09 06:02:21;;;;;;;15.60;6.83;;;7.40;90.10;;;;;;5054714;28;20452;-63
2021/11/09 06:04:54;;;;;;;10.63;6.10;;;7.40;90.00;;;;;;5054713;28;20951;-63
2021/11/09 06:07:22;;;;;;;14.80;6.10;;;7.40;89.90;;;;;;5054686;28;20430;-63
2021/11/09 06:09:54;;;;;;;12.00;5.60;;;7.40;89.70;;;;;;5054818;28;20454;-63
2021/11/09 06:12:22;;;;;;;13.50;6.50;;;7.40;89.40;;;;;;5054347;28;20487;-63
2021/11/09 06:14:51;;;;;;;16.20;6.80;;;7.30;89.20;;;;;;5054806;28;20449;-63
2021/11/09 06:17:27;;;;;;;10.20;5.93;;;7.30;89.10;;;;;;5054425;28;20450;-63
2021/11/09 06:19:58;;;;;;;12.40;5.57;;;7.30;89.20;;;;;;5054790;28;20487;-63
2021/11/09 06:22:27;;;;;;;12.40;6.40;;;7.30;89.00;;;;;;5054976;28;20476;-64
2021/11/09 06:24:59;;;;;;;17.50;6.63;;;7.40;89.00;;;;;;5054164;28;20461;-63
2021/11/09 06:27:29;;;;;;;12.90;6.30;;;7.40;89.10;;;;;;5054480;28;20521;-63
2021/11/09 06:29:57;;;;;;;14.50;6.43;;;7.30;88.90;;;;;;5054173;28;20437;-63
2021/11/09 06:32:28;;;;;;;22.73;7.40;;;7.30;88.80;;;;;;5053959;28;20465;-64
2021/11/09 06:34:57;;;;;;;19.20;7.17;;;7.30;88.60;;;;;;5054466;28;20433;-63
2021/11/09 06:37:30;;;;;;;10.97;7.17;;;7.30;89.00;;;;;;5053981;28;20441;-63
2021/11/09 06:39:59;;;;;;;18.00;8.30;;;7.20;89.30;;;;;;5053917;28;20513;-63
2021/11/09 06:42:28;;;;;;;18.57;7.50;;;7.20;90.00;;;;;;5053790;28;20527;-64
2021/11/09 06:45:00;;;;;;;16.20;7.10;;;7.20;90.10;;;;;;5053670;28;20446;-64
2021/11/09 06:47:35;;;;;;;13.37;6.90;;;7.10;90.30;;;;;;5053365;28;20529;-63
2021/11/09 06:50:08;;;;;;;15.37;7.77;;;7.10;90.50;;;;;;5053921;28;20548;-63
2021/11/09 06:52:37;;;;;;;15.33;7.10;;;7.20;90.50;;;;;;5053701;28;20473;-64
2021/11/09 06:55:06;;;;;;;15.13;5.77;;;7.20;90.50;;;;;;5053507;28;20449;-63
2021/11/09 06:57:35;;;;;;;15.60;7.10;;;7.20;90.50;;;;;;5053512;28;20449;-63
2021/11/09 07:00:12;;;;;;;14.00;6.60;;;7.20;90.60;;;;;;5053969;28;20564;-63
2021/11/09 07:02:42;;;;;;;15.60;6.00;;;7.20;90.50;;;;;;5053513;28;20470;-63
2021/11/09 07:05:12;;;;;;;13.70;5.47;;;7.20;90.40;;;;;;5053375;28;20446;-63
2021/11/09 07:07:45;;;;;;;14.60;6.27;;;7.20;90.30;;;;;;5053782;28;20442;-63
2021/11/09 07:10:17;;;;;;;13.90;5.27;;;7.20;90.30;;;;;;5053649;28;20574;-63
2021/11/09 07:12:48;;;;;;;13.67;6.13;;;7.20;90.30;;;;;;5053121;28;20469;-64
2021/11/09 07:15:18;;;;;;;17.30;5.93;;;7.20;90.20;;;;;;5053378;28;20446;-64
2021/11/09 07:17:51;;;;;;;19.00;7.57;;;7.20;90.40;;;;;;5053563;28;20492;-63
2021/11/09 07:20:21;;;;;;;24.63;5.77;;;7.20;90.30;;;;;;5053666;28;20433;-63
2021/11/09 07:22:51;;;;;;;18.90;6.60;;;7.20;90.30;;;;;;5053207;28;20556;-64
2021/11/09 07:25:20;;;;;;;20.50;6.07;;;7.20;90.30;;;;;;5053500;28;20438;-63
2021/11/09 07:27:49;;;;;;;16.47;6.50;;;7.30;90.60;;;;;;5053377;28;20450;-63
2021/11/09 07:30:18;;;;;;;20.93;6.50;;;7.20;90.10;;;;;;5053431;28;20457;-64
2021/11/09 07:32:48;;;;;;;12.20;5.70;;;7.30;90.20;;;;;;5052997;28;20469;-64
2021/11/09 07:35:19;;;;;;;17.63;5.70;;;7.30;90.20;;;;;;5053033;28;20445;-64
2021/11/09 07:37:47;;;;;;;13.50;5.30;;;7.20;90.10;;;;;;5053041;28;20461;-64
2021/11/09 07:40:18;;;;;;;18.73;5.77;;;7.20;90.00;;;;;;5053220;28;20474;-64
2021/11/09 07:42:49;;;;;;;16.23;5.63;;;7.30;90.10;;;;;;5052782;28;20811;-64
2021/11/09 07:45:21;;;;;;;17.00;6.27;;;7.20;90.10;;;;;;5052741;28;20499;-64
2021/11/09 07:47:58;;;;;;;19.93;5.83;;;7.20;90.20;;;;;;5053186;28;20446;-64
2021/11/09 07:50:30;;;;;;;11.83;5.83;;;7.20;90.30;;;;;;5052839;28;20430;-64
2021/11/09 07:53:01;;;;;;;13.87;5.47;;;7.30;90.40;;;;;;5053177;28;20466;-64
2021/11/09 07:55:39;;;;;;;11.27;5.30;;;7.30;90.50;;;;;;5053087;28;20918;-64
2021/11/09 07:58:12;;;;;;;16.20;6.00;;;7.30;90.60;;;;;;5052083;28;20967;-64
2021/11/09 08:00:42;;;;;;;21.30;5.93;;;7.30;90.70;;;;;;5052830;28;20436;-64
2021/11/09 08:03:15;;;;;;;12.40;5.67;;;7.30;90.70;;;;;;5053043;28;20462;-64
2021/11/09 08:06:00;;;;;;;13.53;5.10;;;7.40;90.60;;;;;;5053371;28;20469;-64
2021/11/09 08:08:33;;;;;;;17.07;5.43;;;7.30;90.60;;;;;;5052351;28;20469;-64
2021/11/09 08:11:02;;;;;;;13.80;6.33;;;7.40;90.70;;;;;;5052514;28;20476;-64
2021/11/09 08:13:36;;;;;;;18.93;7.20;;;7.40;90.80;;;;;;5052528;28;20842;-64
2021/11/09 08:16:04;;;;;;;13.60;5.50;;;7.40;90.80;;;;;;5052681;28;20422;-64
2021/11/09 08:18:34;;;;;;;16.00;6.50;;;7.40;90.70;;;;;;5052627;28;20819;-64
2021/11/09 08:21:03;;;;;;;16.63;7.17;;;7.50;90.70;;;;;;5052662;28;20902;-64
2021/11/09 08:23:32;;;;;;;13.47;5.73;;;7.50;90.70;;;;;;5052640;28;20813;-64
2021/11/09 08:26:03;;;;;;;12.47;5.40;;;7.50;90.80;;;;;;5053274;28;21002;-64
2021/11/09 08:28:37;;;;;;;13.50;5.87;;;7.50;90.80;;;;;;5052809;28;20443;-64
2021/11/09 08:31:11;;;;;;;16.53;6.03;;;7.60;90.90;;;;;;5051950;28;20453;-64
2021/11/09 08:33:44;;;;;;;18.13;6.63;;;7.60;91.00;;;;;;5052723;28;20552;-64
2021/11/09 08:36:15;;;;;;;20.07;6.60;;;7.60;90.90;;;;;;5052175;28;20937;-64
2021/11/09 08:38:44;;;;;;;13.33;6.33;;;7.60;90.90;;;;;;5052591;28;20444;-64
2021/11/09 08:41:16;;;;;;;15.07;6.83;;;7.70;91.10;;;;;;5052505;28;20821;-64
2021/11/09 08:43:58;;;;;;;14.07;6.80;;;7.70;91.10;;;;;;5052570;28;20519;-64
2021/11/09 08:46:30;;;;;;;20.80;6.13;;;7.80;91.10;;;;;;5052453;28;20469;-64
2021/11/09 08:49:02;;;;;;;14.77;5.27;;;7.80;91.10;;;;;;5052260;28;20438;-64
2021/11/09 08:51:32;;;;;;;15.97;4.93;;;7.90;91.30;;;;;;5052439;28;20521;-64
2021/11/09 08:54:13;;;;;;;12.73;4.93;;;7.90;91.40;;;;;;5052539;28;20466;-64
2021/11/09 09:05:01;;;;;;;14.67;6.50;;;8.10;91.20;;;;;;5052410;28;20429;-64
2021/11/09 09:07:33;;;;;;;12.00;6.10;;;8.20;91.10;;;;;;5052212;28;20980;-64
2021/11/09 09:10:06;;;;;;;14.47;5.90;;;8.30;91.10;;;;;;5053606;28;20495;-64
2021/11/09 09:12:36;;;;;;;14.97;7.27;;;8.40;91.10;;;;;;5055644;28;20469;-64
2021/11/09 09:15:09;;;;;;;15.43;6.03;;;8.50;91.00;;;;;;5055412;28;20496;-64
2021/11/09 09:17:36;;;;;;;18.77;6.60;;;8.50;90.80;;;;;;5055558;28;20929;-64
2021/11/09 09:20:14;;;;;;;21.63;6.50;;;8.60;90.60;;;;;;5055994;28;20941;-64
2021/11/09 09:22:46;;;;;;;24.57;7.03;;;8.70;90.50;;;;;;5055769;28;20562;-64
2021/11/09 09:25:24;;;;;;;17.37;6.17;;;8.80;90.40;;;;;;5055522;28;20843;-64
2021/11/09 09:30:41;;;;;;;14.20;5.57;;;8.90;90.10;;;;;;5054918;28;20430;-64
2021/11/09 09:33:23;;;;;;;10.47;5.20;;;9.10;90.10;;;;;;5055691;28;20527;-64
2021/11/09 09:52:54;;;;;;;10.90;5.40;;;9.70;88.70;;;;;;5055236;28;20456;-66
2021/11/09 09:55:33;;;;;;;19.67;5.97;;;9.80;88.70;;;;;;5055198;28;20433;-66
2021/11/09 09:58:04;;;;;;;18.20;6.70;;;10.00;86.90;;;;;;5055487;28;20433;-65
2021/11/09 10:00:33;;;;;;;12.47;5.57;;;10.10;86.10;;;;;;5055053;28;20438;-66
2021/11/09 10:03:01;;;;;;;15.30;6.60;;;10.10;85.80;;;;;;5054927;28;20472;-66
2021/11/09 10:05:38;;;;;;;17.77;6.27;;;10.20;86.10;;;;;;5055141;28;20445;-65
2021/11/09 10:08:19;;;;;;;15.03;6.33;;;10.30;85.80;;;;;;5054737;28;20987;-65
2021/11/09 10:10:48;;;;;;;20.73;7.27;;;10.40;85.00;;;;;;5054806;28;20438;-65
2021/11/09 10:13:23;;;;;;;13.93;5.63;;;10.60;85.40;;;;;;5054960;28;20474;-65
2021/11/09 10:15:56;;;;;;;12.50;5.43;;;10.70;85.40;;;;;;5054850;28;20433;-65
2021/11/09 10:18:25;;;;;;;13.57;5.70;;;10.80;84.90;;;;;;5054550;28;20495;-65
2021/11/09 10:20:55;;;;;;;16.00;5.23;;;10.90;84.30;;;;;;5054286;28;20453;-65
2021/11/09 10:23:26;;;;;;;13.40;5.07;;;11.10;84.40;;;;;;5054256;28;20450;-65
2021/11/09 10:26:08;;;;;;;14.87;5.17;;;11.30;82.20;;;;;;5054509;28;20531;-65
2021/11/09 10:28:36;;;;;;;11.43;4.73;;;11.40;80.40;;;;;;5054106;28;20818;-65
2021/11/09 10:31:08;;;;;;;12.07;5.37;;;11.60;80.30;;;;;;5054377;28;20452;-66
2021/11/09 10:33:40;;;;;;;13.63;5.23;;;11.80;80.40;;;;;;5054707;28;20473;-65
2021/11/09 10:36:17;;;;;;;11.17;4.73;;;12.00;77.60;;;;;;5054439;28;20839;-65
2021/11/09 10:38:49;;;;;;;6.83;4.20;;;12.30;75.50;;;;;;5054329;28;20537;-65
2021/11/09 10:41:17;;;;;;;10.97;5.50;;;12.50;74.20;;;;;;5054050;28;20465;-65
2021/11/09 10:43:46;;;;;;;12.50;4.63;;;12.80;74.50;;;;;;5054287;28;20983;-66
2021/11/09 10:46:30;;;;;;;10.80;4.40;;;13.00;74.00;;;;;;5053982;28;20448;-66
2021/11/09 10:48:58;;;;;;;8.50;4.30;;;13.40;72.00;;;;;;5054047;28;20441;-66
2021/11/09 10:51:47;;;;;;;9.47;3.40;;;13.80;71.40;;;;;;5053962;28;20449;-66
2021/11/09 10:54:42;;;;;;;13.53;4.00;;;14.20;66.20;;;;;;5053883;28;20469;-66
2021/11/09 10:57:19;;;;;;;10.87;3.83;;;14.80;63.90;;;;;;5053822;28;20450;-66
2021/11/09 11:00:05;;;;;;;10.70;4.27;;;15.30;60.70;;;;;;5053804;28;20897;-66
2021/11/09 11:05:19;;;;;;;7.73;3.13;;;16.00;57.80;;;;;;5053901;28;20405;-66
2021/11/09 11:08:00;;;;;;;9.80;4.17;;;16.50;57.50;;;;;;5053660;28;20487;-66
2021/11/09 11:10:35;;;;;;;6.80;3.30;;;17.00;56.60;;;;;;5054013;28;20441;-66
2021/11/09 11:13:24;;;;;;;9.30;4.13;;;17.40;54.80;;;;;;5053472;28;20469;-67
2021/11/09 11:16:12;;;;;;;12.63;4.23;;;17.90;54.70;;;;;;5054051;28;20827;-67
2021/11/09 11:18:47;;;;;;;8.77;3.50;;;18.30;52.60;;;;;;5053100;28;20792;-67
2021/11/09 11:21:16;;;;;;;11.93;3.37;;;18.70;51.70;;;;;;5053583;28;20448;-67
2021/11/09 11:23:52;;;;;;;8.60;3.73;;;19.10;50.30;;;;;;5053661;28;20509;-67
2021/11/09 11:26:22;;;;;;;10.10;3.70;;;19.30;47.90;;;;;;5053297;28;20437;-67
2021/11/09 11:28:53;;;;;;;9.23;3.63;;;19.60;47.00;;;;;;5053324;28;20544;-67
2021/11/09 11:31:22;;;;;;;4.90;2.53;;;19.80;45.90;;;;;;5053024;28;20457;-67
2021/11/09 11:33:54;;;;;;;8.47;3.40;;;20.00;45.80;;;;;;5052916;28;20560;-67
2021/11/09 11:36:25;;;;;;;6.77;3.50;;;20.20;45.00;;;;;;5053269;28;20927;-67
2021/11/09 11:39:00;;;;;;;7.07;3.10;;;20.40;44.50;;;;;;5053559;28;20433;-67
2021/11/09 11:41:37;;;;;;;5.43;2.77;;;20.60;43.30;;;;;;5053127;28;20948;-67
2021/11/09 11:44:12;;;;;;;8.67;3.00;;;20.90;43.20;;;;;;5053316;28;20465;-67
2021/11/09 11:46:53;;;;;;;6.37;3.37;;;21.10;42.20;;;;;;5053138;28;20972;-67
2021/11/09 11:49:27;;;;;;;7.60;3.10;;;21.30;41.50;;;;;;5053139;28;20492;-67
2021/11/09 11:52:20;;;;;;;5.30;2.90;;;21.40;41.20;;;;;;5053533;28;20444;-67
2021/11/09 11:54:54;;;;;;;6.60;2.90;;;21.70;41.40;;;;;;5053375;28;20434;-67
2021/11/09 11:57:41;;;;;;;6.57;2.57;;;21.90;41.30;;;;;;5053016;28;20481;-67
2021/11/09 12:00:47;;;;;;;8.33;2.80;;;22.20;39.80;;;;;;5053158;28;20469;-67
2021/11/09 12:03:44;;;;;;;9.17;3.33;;;22.40;38.00;;;;;;5052827;28;20474;-67
2021/11/09 12:06:23;;;;;;;8.40;3.53;;;22.60;38.10;;;;;;5052834;28;20935;-67
2021/11/09 12:08:54;;;;;;;10.93;3.03;;;22.70;37.80;;;;;;5052919;28;20425;-67
2021/11/09 12:11:46;;;;;;;7.33;3.43;;;22.90;37.70;;;;;;5052931;28;20469;-67
2021/11/09 12:14:17;;;;;;;5.80;3.00;;;23.10;37.30;;;;;;5052742;28;20508;-67
2021/11/09 12:16:57;;;;;;;5.50;2.80;;;23.30;37.00;;;;;;5053193;28;20427;-68
2021/11/09 12:20:03;;;;;;;7.10;2.70;;;23.50;36.50;;;;;;5053593;28;20433;-68
2021/11/09 12:22:51;;;;;;;5.80;2.90;;;23.60;35.90;;;;;;5053931;28;21027;-68
2021/11/09 12:25:37;;;;;;;6.47;2.93;;;23.70;36.00;;;;;;5053384;28;20833;-67
2021/11/09 12:28:13;;;;;;;6.90;3.47;;;23.60;34.90;;;;;;5052855;28;20476;-68
2021/11/09 12:30:50;;;;;;;7.90;3.30;;;23.60;35.40;;;;;;5053437;28;20586;-68
2021/11/09 12:33:20;;;;;;;7.73;3.20;;;23.60;35.20;;;;;;5053253;28;20501;-68
2021/11/09 12:35:52;;;;;;;5.40;2.87;;;23.70;35.90;;;;;;5053711;28;20933;-68
2021/11/09 12:38:22;;;;;;;7.33;3.00;;;23.90;35.10;;;;;;5052878;28;20430;-68
2021/11/09 12:40:56;;;;;;;5.10;3.33;;;24.10;34.90;;;;;;5053339;28;20461;-68
2021/11/09 12:43:41;;;;;;;7.70;3.43;;;24.20;33.80;;;;;;5053289;28;20475;-68
2021/11/09 12:46:13;;;;;;;8.67;3.17;;;24.30;33.60;;;;;;5056467;28;20479;-68
2021/11/09 12:48:49;;;;;;;6.83;3.20;;;24.40;33.80;;;;;;5057111;28;20808;-68
2021/11/09 12:51:20;;;;;;;5.90;2.87;;;24.40;32.60;;;;;;5056949;28;20437;-68
2021/11/09 12:53:52;;;;;;;4.93;2.90;;;24.40;32.90;;;;;;5057286;28;20461;-68
2021/11/09 12:56:33;;;;;;;7.50;3.57;;;24.40;32.80;;;;;;5057626;28;20461;-68
2021/11/09 12:59:05;;;;;;;5.77;2.90;;;24.50;33.20;;;;;;5056669;28;20451;-68
2021/11/09 13:01:51;;;;;;;5.43;2.60;;;24.50;32.60;;;;;;5056856;28;20422;-67
2021/11/09 13:04:24;;;;;;;10.77;3.57;;;24.40;32.70;;;;;;5056958;28;20480;-68
2021/11/09 13:06:59;;;;;;;5.57;2.83;;;24.30;32.10;;;;;;5057272;28;20430;-68
2021/11/09 13:09:33;;;;;;;4.37;3.10;;;24.10;32.40;;;;;;5056594;28;20429;-68
2021/11/09 13:12:05;;;;;;;5.37;3.10;;;24.10;33.80;;;;;;5056886;28;20465;-68
2021/11/09 13:14:46;;;;;;;6.47;2.70;;;24.20;33.40;;;;;;5057624;28;20437;-68
2021/11/09 13:17:18;;;;;;;6.07;2.53;;;24.20;31.60;;;;;;5056687;28;20449;-68
2021/11/09 13:19:47;;;;;;;7.20;2.90;;;24.00;31.30;;;;;;5056826;28;20483;-68
2021/11/09 13:22:18;;;;;;;5.63;3.23;;;23.90;31.90;;;;;;5056250;28;20438;-68
2021/11/09 13:24:57;;;;;;;6.20;3.07;;;23.80;32.00;;;;;;5056444;28;20537;-67
2021/11/09 13:27:42;;;;;;;4.13;2.50;;;23.70;32.30;;;;;;5056666;28;20500;-67
2021/11/09 13:30:16;;;;;;;10.47;2.90;;;23.40;32.80;;;;;;5056290;28;20434;-67
2021/11/09 13:32:47;;;;;;;4.20;2.77;;;23.30;33.30;;;;;;5055692;28;20525;-68
2021/11/09 13:35:24;;;;;;;7.50;2.70;;;23.30;33.80;;;;;;5055751;28;20430;-68
2021/11/09 13:38:07;;;;;;;6.80;2.77;;;23.30;33.20;;;;;;5055478;28;20433;-67
2021/11/09 13:40:38;;;;;;;7.53;3.47;;;23.30;33.60;;;;;;5055751;28;20438;-67
2021/11/09 13:43:08;;;;;;;7.07;3.00;;;23.20;33.60;;;;;;5055425;28;20465;-68
2021/11/09 13:45:37;;;;;;;6.17;3.17;;;23.10;33.10;;;;;;5055408;28;20874;-68
2021/11/09 13:48:14;;;;;;;4.93;2.50;;;22.80;33.80;;;;;;5055909;28;21012;-68
2021/11/09 13:50:44;;;;;;;8.70;3.40;;;22.40;35.10;;;;;;5055598;28;20438;-67
2021/11/09 13:53:13;;;;;;;4.83;2.40;;;21.90;35.20;;;;;;5055132;28;20477;-68
2021/11/09 13:55:44;;;;;;;3.97;2.73;;;21.30;35.80;;;;;;5054869;28;20449;-67
2021/11/09 13:58:11;;;;;;;10.30;3.70;;;20.70;36.70;;;;;;5054813;28;20434;-67
2021/11/09 14:00:44;;;;;;;5.47;3.00;;;20.20;38.00;;;;;;5055094;28;20461;-67
2021/11/09 14:03:27;;;;;;;5.40;2.80;;;19.70;39.00;;;;;;5055023;28;20531;-67
2021/11/09 14:17:15;;;;;;;8.10;2.83;;;17.70;43.20;;;;;;5044191;28;20430;-67
2021/11/09 14:19:48;;;;;;;6.50;2.90;;;17.40;43.80;;;;;;5054647;28;20540;-67
2021/11/09 14:22:22;;;;;;;7.50;4.00;;;17.10;44.40;;;;;;5054588;28;20618;-68
2021/11/09 14:24:58;;;;;;;7.17;2.80;;;16.90;45.10;;;;;;5054988;28;20870;-67
2021/11/09 14:27:31;;;;;;;8.87;3.50;;;16.70;46.00;;;;;;5054478;28;20844;-67
2021/11/09 14:30:03;;;;;;;3.93;2.13;;;16.60;46.90;;;;;;5054514;28;20520;-68
2021/11/09 14:32:34;;;;;;;6.13;3.00;;;16.40;47.00;;;;;;5054522;28;20527;-68
2021/11/09 14:35:08;;;;;;;6.97;3.00;;;16.30;47.50;;;;;;5054995;28;20476;-67
2021/11/09 14:37:53;;;;;;;8.93;2.57;;;16.10;47.60;;;;;;5054403;28;20476;-67
2021/11/09 14:40:28;;;;;;;6.40;2.40;;;16.00;47.70;;;;;;5054072;28;20492;-66
2021/11/09 14:43:11;;;;;;;6.80;2.37;;;15.90;48.40;;;;;;5054276;28;20881;-67
2021/11/09 14:45:45;;;;;;;7.73;2.57;;;15.80;49.00;;;;;;5054161;28;20437;-67
2021/11/09 14:48:16;;;;;;;5.93;2.70;;;15.70;48.80;;;;;;5054469;28;20501;-67
2021/11/09 14:50:53;;;;;;;3.47;2.13;;;15.60;49.70;;;;;;5055044;28;20416;-67
2021/11/09 14:53:25;;;;;;;4.60;2.40;;;15.50;50.20;;;;;;5054166;28;20505;-66
2021/11/09 14:55:54;;;;;;;7.13;2.80;;;15.50;50.50;;;;;;5054192;28;20964;-66